Visit the IPS Meteostar Home Page 2IPSM Phoenix Sky Harbor International Airport FORECAST

Phoenix, Arizona

2 miles away at Phoenix Sky Harbor International Airport 15:51 GMT

Weather:

Mostly Cloudy

Wind:

E 6 mph

Temperature:

45 ° F

Pressure:

30.28

Dew Point:

25 ° F

Relative Humidity:

43

Feels Like:

42 ° F

Visibility:

10 miles


Aviation Observations:

KPHX 221551Z 10005KT 10SM SCT200 BKN250 07/M04 A3026 RMK AO2 SLP245 T00721039 =

National Weather Service Forecast:
Greater Phoenix Area


Visit the IPS Meteostar Home Page